Pagrindinis puslapis
METAR-TAF:

METAR-TAF

Oro uostai :

Ipjalesas, Kolumbija

platuma: 00-49N, ilguma: 077-38W, Aukštis: 2961 m

Dabartinis oras

Ataskaita buvo paskelbta 10 valandos ir 36 minutes, ne 19:00 UTC
Vėjas 8 kt iš Rytų/Pietryčių
Temperatūra 15°C
Drėgmė 77%
Slėgis 1027 hPa
Matomumas 10 km arba daugiau
Su prošvaistėmis ne aukštis 1600 ft
Liūtis kaimynystėje

METAR: SKIP 311900Z 12008KT 9999 VCSH BKN016 15/11 A3034 RMK VCSH/NE/SE

Laikas: 00:36 (05:36 UTC)


TAF: trūkstamas

Orai ataskaitas ir orų prognozės (METAR, TAF).

turimą stotys yra geltonos ir raudonos taškus žemėlapyje.

Perkelti pele per norėdami pamatyti stoties vardą.

Tada spustelėkite, norėdami matyti oro stebėjimo ir prognozės.

Norėdami pakeisti žemėlapį: spustelėkite ant žalios mygtukų su juodo kryžiaus žemyn,; žalią mygtuką su brūkšneliu, jei norite nutolinti; arba žalių rodyklių gretimoms žemėlapius.


METAR-TAF: